createdAt,value
2018-01-03T00:01:31.730Z,97056.05
2018-01-03T00:04:00.029Z,97041.99
2018-01-03T00:06:28.341Z,97037.59
2018-01-03T00:08:57.353Z,97028.23
2018-01-03T00:11:25.654Z,97021.52
2018-01-03T00:13:53.947Z,97023.46
2018-01-03T00:16:22.250Z,97013.48
2018-01-03T00:18:50.490Z,97016.45
2018-01-03T00:21:20.153Z,97001.18
2018-01-03T00:23:48.445Z,96983.64
2018-01-03T00:26:16.745Z,96979.87
2018-01-03T00:28:45.026Z,96966.32
2018-01-03T00:31:13.322Z,96964.88
2018-01-03T00:33:42.530Z,96969.09
2018-01-03T00:36:10.796Z,96966.85
2018-01-03T00:38:39.053Z,96971.35
2018-01-03T00:41:08.076Z,96957.54
2018-01-03T00:43:37.131Z,96944.24
2018-01-03T00:46:06.175Z,96932.75
2018-01-03T00:48:35.229Z,96931.28
2018-01-03T00:51:04.257Z,96914.34
2018-01-03T00:53:32.513Z,96902.10
2018-01-03T00:56:00.796Z,96878.65
2018-01-03T00:58:29.065Z,96883.51
2018-01-03T01:00:58.104Z,96879.28
2018-01-03T01:03:26.360Z,96874.71
2018-01-03T01:05:55.415Z,96877.96
2018-01-03T01:08:23.655Z,96872.20
2018-01-03T01:10:52.692Z,96865.41
2018-01-03T01:13:20.943Z,96860.56
2018-01-03T01:15:49.233Z,96854.67
2018-01-03T01:18:18.263Z,96860.36
2018-01-03T01:20:46.531Z,96862.48
2018-01-03T01:23:15.554Z,96856.89
2018-01-03T01:25:44.584Z,96872.97
2018-01-03T01:28:12.851Z,96873.44
2018-01-03T01:30:41.924Z,96873.75
2018-01-03T01:33:10.175Z,96865.45
2018-01-03T01:35:38.492Z,96867.55
2018-01-03T01:38:06.743Z,96870.70
2018-01-03T01:40:35.014Z,96863.60
2018-01-03T01:43:03.297Z,96852.02
2018-01-03T01:45:32.359Z,96850.27
2018-01-03T01:48:00.621Z,96859.50
2018-01-03T01:50:28.884Z,96846.73
2018-01-03T01:52:57.915Z,96789.79
2018-01-03T01:55:26.173Z,96782.98
2018-01-03T01:57:55.208Z,96786.11
2018-01-03T02:00:23.464Z,96782.64
2018-01-03T02:02:52.497Z,96780.89
2018-01-03T02:05:20.754Z,96784.78
2018-01-03T02:07:49.819Z,96780.16
2018-01-03T02:10:18.085Z,96766.55
2018-01-03T02:12:46.451Z,96773.78
2018-01-03T02:15:15.482Z,96757.34
2018-01-03T02:17:44.885Z,96734.56
2018-01-03T02:20:13.906Z,96752.36
2018-01-03T02:22:42.177Z,96743.20
2018-01-03T02:25:11.194Z,96714.77
2018-01-03T02:27:39.459Z,96721.41
2018-01-03T02:30:08.472Z,96705.06
2018-01-03T02:32:37.508Z,96706.36
2018-01-03T02:35:05.774Z,96701.36
2018-01-03T02:37:34.074Z,96685.25
2018-01-03T02:40:02.307Z,96672.53
2018-01-03T02:42:30.649Z,96648.31
2018-01-03T02:44:59.664Z,96634.27
2018-01-03T02:47:27.922Z,96608.04
2018-01-03T02:49:56.943Z,96581.00
2018-01-03T02:52:25.986Z,96578.54
2018-01-03T02:54:54.246Z,96574.11
2018-01-03T02:57:23.284Z,96551.81
2018-01-03T02:59:51.532Z,96554.34
2018-01-03T03:02:19.796Z,96546.36
2018-01-03T03:04:48.068Z,96536.62
2018-01-03T03:07:16.305Z,96529.52
2018-01-03T03:09:44.574Z,96514.27
2018-01-03T03:12:13.600Z,96481.31
2018-01-03T03:14:41.872Z,96492.30
2018-01-03T03:17:10.905Z,96508.17
2018-01-03T03:19:39.187Z,96483.30
2018-01-03T03:22:07.460Z,96475.47
2018-01-03T03:24:36.484Z,96448.07
2018-01-03T03:27:05.503Z,96421.61
2018-01-03T03:29:33.783Z,96402.65
2018-01-03T03:32:02.056Z,96390.27
2018-01-03T03:34:31.095Z,96380.99
2018-01-03T03:36:59.352Z,96353.46
2018-01-03T03:39:28.385Z,96333.08
2018-01-03T03:41:56.634Z,96335.23
2018-01-03T03:44:24.895Z,96341.84
2018-01-03T03:46:53.141Z,96328.47
2018-01-03T03:49:21.419Z,96321.03
2018-01-03T03:51:50.444Z,96302.47
2018-01-03T03:54:18.716Z,96274.61
2018-01-03T03:56:46.955Z,96268.94
2018-01-03T03:59:15.219Z,96262.67
2018-01-03T04:01:43.493Z,96244.87
2018-01-03T04:04:11.765Z,96236.13
2018-01-03T04:06:40.028Z,96220.45
2018-01-03T04:09:08.315Z,96200.19
2018-01-03T04:11:36.571Z,96192.37
2018-01-03T04:14:04.837Z,96199.73
2018-01-03T04:16:33.102Z,96209.62
2018-01-03T04:19:02.112Z,96195.70
2018-01-03T04:21:31.130Z,96189.57
2018-01-03T04:23:59.384Z,96168.85
2018-01-03T04:26:27.632Z,96150.68
2018-01-03T04:28:55.900Z,96116.60
2018-01-03T04:31:24.912Z,96089.95
2018-01-03T04:33:53.184Z,96071.04
2018-01-03T04:36:22.193Z,96082.45
2018-01-03T04:38:51.272Z,96031.61
2018-01-03T04:41:19.514Z,96014.23
2018-01-03T04:43:47.789Z,95985.45
2018-01-03T04:46:16.079Z,95983.39
2018-01-03T04:48:44.341Z,95965.55
2018-01-03T04:51:12.659Z,95972.21
2018-01-03T04:53:40.917Z,95953.03
2018-01-03T04:56:09.202Z,95967.65
2018-01-03T04:58:37.463Z,95963.88
2018-01-03T05:01:05.749Z,95931.39
2018-01-03T05:03:33.997Z,95930.39
2018-01-03T05:06:02.272Z,95949.89
2018-01-03T05:08:31.311Z,95918.70
2018-01-03T05:10:59.588Z,95913.66
2018-01-03T05:13:27.842Z,95923.48
2018-01-03T05:15:56.124Z,95926.36
2018-01-03T05:18:24.396Z,95895.98
2018-01-03T05:20:53.444Z,95869.48
2018-01-03T05:23:22.499Z,95865.55
2018-01-03T05:25:50.771Z,95834.47
2018-01-03T05:28:19.031Z,95793.45
2018-01-03T05:30:48.071Z,95783.02
2018-01-03T05:33:16.332Z,95759.55
2018-01-03T05:35:44.609Z,95766.11
2018-01-03T05:38:13.641Z,95767.34
2018-01-03T05:40:41.915Z,95713.48
2018-01-03T05:43:10.935Z,95715.51
2018-01-03T05:45:39.223Z,95730.69
2018-01-03T05:48:07.488Z,95688.13
2018-01-03T05:50:36.541Z,95676.94
2018-01-03T05:53:04.807Z,95639.32
2018-01-03T05:55:33.108Z,95657.71
2018-01-03T05:58:01.363Z,95621.98
2018-01-03T06:00:30.423Z,95611.81
2018-01-03T06:02:58.684Z,95628.25
2018-01-03T06:05:26.951Z,95621.73
2018-01-03T06:07:56.049Z,95616.88
2018-01-03T06:10:24.255Z,95632.04
2018-01-03T06:12:53.290Z,95627.64
2018-01-03T06:15:21.542Z,95639.13
2018-01-03T06:17:50.587Z,95611.11
2018-01-03T06:20:18.850Z,95580.35
2018-01-03T06:22:47.884Z,95575.86
2018-01-03T06:25:16.148Z,95582.05
2018-01-03T06:27:44.446Z,95570.69
2018-01-03T06:30:12.710Z,95531.70
2018-01-03T06:32:40.998Z,95532.13
2018-01-03T06:35:10.049Z,95527.70
2018-01-03T06:37:38.360Z,95532.17
2018-01-03T06:40:06.645Z,95545.17
2018-01-03T06:42:34.923Z,95533.55
2018-01-03T06:45:03.172Z,95507.77
2018-01-03T06:47:32.220Z,95478.77
2018-01-03T06:50:00.480Z,95482.37
2018-01-03T06:52:28.775Z,95544.14
2018-01-03T06:54:57.049Z,95521.63
2018-01-03T06:57:25.315Z,95487.49
2018-01-03T06:59:53.584Z,95500.37
2018-01-03T07:02:21.879Z,95507.53
2018-01-03T07:04:50.155Z,95482.61
2018-01-03T07:07:18.513Z,95474.06
2018-01-03T07:09:46.732Z,95465.31
2018-01-03T07:12:15.039Z,95501.25
2018-01-03T07:14:43.301Z,95505.69
2018-01-03T07:17:11.580Z,95510.41
2018-01-03T07:19:39.847Z,95517.06
2018-01-03T07:22:08.893Z,95497.59
2018-01-03T07:24:37.164Z,95485.50
2018-01-03T07:27:06.222Z,95548.73
2018-01-03T07:29:34.473Z,95790.14
2018-01-03T07:32:02.728Z,95791.56
2018-01-03T07:34:31.010Z,95757.98
2018-01-03T07:37:00.036Z,95786.24
2018-01-03T07:39:28.300Z,95821.30
2018-01-03T07:41:57.320Z,95805.90
2018-01-03T07:44:26.386Z,95804.95
2018-01-03T07:46:54.670Z,95789.92
2018-01-03T07:49:22.941Z,95799.08
2018-01-03T07:51:51.200Z,95802.33
2018-01-03T07:54:19.458Z,95806.88
2018-01-03T07:56:48.491Z,95815.33
2018-01-03T07:59:17.542Z,95805.69
2018-01-03T08:01:45.783Z,95810.98
2018-01-03T08:04:14.059Z,95837.55
2018-01-03T08:06:43.081Z,95846.27
2018-01-03T08:09:11.351Z,95849.25
2018-01-03T08:11:40.404Z,95821.74
2018-01-03T08:14:08.658Z,95813.80
2018-01-03T08:16:37.681Z,95784.45
2018-01-03T08:19:05.948Z,95768.17
2018-01-03T08:21:34.196Z,95842.32
2018-01-03T08:24:02.463Z,95840.45
2018-01-03T08:26:30.719Z,95868.52
2018-01-03T08:28:59.758Z,95908.05
2018-01-03T08:31:28.805Z,95915.18
2018-01-03T08:33:57.075Z,95913.45
2018-01-03T08:36:25.340Z,95913.61
2018-01-03T08:38:54.391Z,95881.19
2018-01-03T08:41:22.655Z,95837.38
2018-01-03T08:46:12.102Z,95850.86
2018-01-03T08:48:40.392Z,95871.47
2018-01-03T08:51:08.647Z,95893.07
2018-01-03T08:53:36.934Z,95879.17
2018-01-03T08:56:05.193Z,95899.27
2018-01-03T08:58:33.476Z,95890.70
2018-01-03T09:01:01.767Z,95903.66
2018-01-03T09:03:30.027Z,95895.44
2018-01-03T09:05:58.324Z,95881.01
2018-01-03T09:08:27.918Z,95838.53
2018-01-03T09:10:57.691Z,95836.56
2018-01-03T09:13:25.947Z,95845.72
2018-01-03T09:15:54.269Z,95822.25
2018-01-03T09:18:23.875Z,95853.88
2018-01-03T09:20:52.898Z,95824.08
2018-01-03T09:23:21.178Z,95832.15
2018-01-03T09:25:49.453Z,95827.70
2018-01-03T09:28:18.459Z,95813.95
2018-01-03T09:30:46.731Z,95820.06
2018-01-03T09:33:15.005Z,95854.06
2018-01-03T09:35:43.284Z,95847.17
2018-01-03T09:38:11.536Z,95852.76
2018-01-03T09:40:39.824Z,95939.81
2018-01-03T09:43:08.067Z,95964.45
2018-01-03T09:45:36.348Z,95944.07
2018-01-03T09:48:04.609Z,95973.84
2018-01-03T09:50:32.915Z,95963.26
2018-01-03T09:53:01.173Z,95939.39
2018-01-03T09:55:29.439Z,95955.87
2018-01-03T09:57:58.488Z,95957.30
2018-01-03T10:00:26.783Z,95959.20
2018-01-03T10:02:55.065Z,95913.83
2018-01-03T10:05:23.344Z,95923.67
2018-01-03T10:07:51.589Z,95935.20
2018-01-03T10:10:19.887Z,95964.45
2018-01-03T10:12:48.900Z,95985.76
2018-01-03T10:15:17.931Z,96037.34
2018-01-03T10:17:46.187Z,96055.70
2018-01-03T10:20:14.467Z,96074.72
2018-01-03T10:22:42.720Z,96105.10
2018-01-03T10:25:11.000Z,96089.88
2018-01-03T10:27:39.250Z,96095.77
2018-01-03T10:30:08.287Z,96055.95
2018-01-03T10:32:37.347Z,96011.15
2018-01-03T10:35:05.608Z,96019.56
2018-01-03T10:37:33.864Z,96028.98
2018-01-03T10:40:02.108Z,96055.57
2018-01-03T10:42:30.392Z,96080.28
2018-01-03T10:44:58.659Z,96115.25
2018-01-03T10:47:27.694Z,96129.49
2018-01-03T10:49:55.948Z,96144.30
2018-01-03T10:52:24.217Z,96128.30
2018-01-03T10:54:52.474Z,96132.91
2018-01-03T10:57:21.691Z,96132.28
2018-01-03T10:59:50.703Z,96138.41
2018-01-03T11:02:19.738Z,96143.02
2018-01-03T11:04:47.991Z,96150.98
2018-01-03T11:07:16.264Z,96177.44
2018-01-03T11:09:44.519Z,96155.66
2018-01-03T11:12:12.780Z,96157.27
2018-01-03T11:14:41.081Z,96185.44
2018-01-03T11:17:09.368Z,96145.88
2018-01-03T11:19:37.620Z,96128.59
2018-01-03T11:22:06.682Z,96117.78
2018-01-03T11:24:34.928Z,96113.52
2018-01-03T11:27:03.961Z,96134.43
2018-01-03T11:29:32.223Z,96138.41
2018-01-03T11:32:00.591Z,96136.80
2018-01-03T11:34:30.188Z,96147.54
2018-01-03T11:36:58.993Z,96149.09
2018-01-03T11:39:27.234Z,96169.37
2018-01-03T11:41:56.268Z,96175.86
2018-01-03T11:44:24.544Z,96171.75
2018-01-03T11:46:52.811Z,96160.99
2018-01-03T11:49:21.841Z,96184.98
2018-01-03T11:51:50.107Z,96224.03
2018-01-03T11:54:19.131Z,96236.62
2018-01-03T11:56:47.404Z,96241.78
2018-01-03T11:59:15.631Z,96251.48
2018-01-03T12:01:43.873Z,96263.65
2018-01-03T12:04:12.921Z,96287.10
2018-01-03T12:06:41.540Z,96297.82
2018-01-03T12:09:09.815Z,96292.11
2018-01-03T12:11:38.065Z,96296.73
2018-01-03T12:14:07.088Z,96304.65
2018-01-03T12:16:35.349Z,96288.23
2018-01-03T12:19:03.611Z,96275.94
2018-01-03T12:21:31.867Z,96277.67
2018-01-03T12:24:00.140Z,96303.78
2018-01-03T12:26:28.418Z,96318.89
2018-01-03T12:28:57.471Z,96300.62
2018-01-03T12:31:25.715Z,96311.48
2018-01-03T12:33:54.860Z,96326.45
2018-01-03T12:36:23.886Z,96324.20
2018-01-03T12:38:52.237Z,96310.02
2018-01-03T12:41:21.300Z,96366.20
2018-01-03T12:43:49.581Z,96340.88
2018-01-03T12:46:17.833Z,96343.95
2018-01-03T12:48:46.103Z,96346.72
2018-01-03T12:51:14.372Z,96348.07
2018-01-03T12:53:42.664Z,96351.50
2018-01-03T12:56:10.899Z,96315.47
2018-01-03T12:58:39.202Z,96351.80
2018-01-03T13:01:07.456Z,96374.88
2018-01-03T13:03:35.752Z,96369.70
2018-01-03T13:06:04.007Z,96367.79
2018-01-03T13:08:32.284Z,96365.41
2018-01-03T13:11:00.543Z,96378.27
2018-01-03T13:13:29.599Z,96389.13
2018-01-03T13:15:57.860Z,96385.95
2018-01-03T13:18:26.151Z,96412.79
2018-01-03T13:20:54.414Z,96419.80
2018-01-03T13:23:22.819Z,96418.03
2018-01-03T13:25:51.063Z,96439.04
2018-01-03T13:28:20.100Z,96428.40
2018-01-03T13:30:48.349Z,96441.52
2018-01-03T13:33:16.614Z,96444.45
2018-01-03T13:35:44.874Z,96457.20
2018-01-03T13:38:13.171Z,96454.55
2018-01-03T13:40:42.240Z,96465.64
2018-01-03T13:43:11.257Z,96470.83
2018-01-03T13:45:39.559Z,96495.02
2018-01-03T13:48:07.829Z,96489.30
2018-01-03T13:50:36.085Z,96481.45
2018-01-03T13:53:04.364Z,96484.88
2018-01-03T13:55:32.640Z,96478.76
2018-01-03T13:58:00.899Z,96494.80
2018-01-03T14:00:29.172Z,96507.92
2018-01-03T14:02:58.445Z,96518.12
2018-01-03T14:05:26.746Z,96516.97
2018-01-03T14:07:54.995Z,96524.00
2018-01-03T14:10:23.271Z,96529.69
2018-01-03T14:12:51.536Z,96516.09
2018-01-03T14:15:20.576Z,96533.30
2018-01-03T14:17:49.577Z,96516.19
2018-01-03T14:20:17.852Z,96535.16
2018-01-03T14:22:46.113Z,96514.81
2018-01-03T14:25:14.416Z,96519.01
2018-01-03T14:27:43.475Z,96509.48
2018-01-03T14:30:11.756Z,96513.95
2018-01-03T14:32:40.015Z,96506.78
2018-01-03T14:35:08.290Z,96531.34
2018-01-03T14:37:37.296Z,96532.09
2018-01-03T14:40:05.554Z,96542.70
2018-01-03T14:42:33.803Z,96543.77
2018-01-03T14:45:02.076Z,96551.59
2018-01-03T14:47:31.095Z,96561.14
2018-01-03T14:49:59.372Z,96560.47
2018-01-03T14:52:27.665Z,96567.49
2018-01-03T14:54:55.918Z,96566.84
2018-01-03T14:57:24.202Z,96572.14
2018-01-03T14:59:52.463Z,96575.32
2018-01-03T15:02:20.704Z,96571.84
2018-01-03T15:04:49.709Z,96573.81
2018-01-03T15:07:18.727Z,96578.66
2018-01-03T15:09:47.716Z,96591.69
2018-01-03T15:12:16.752Z,96602.01
2018-01-03T15:14:45.023Z,96610.20
2018-01-03T15:17:14.062Z,96611.92
2018-01-03T15:19:42.309Z,96619.07
2018-01-03T15:22:11.340Z,96615.73
2018-01-03T15:24:39.598Z,96613.98
2018-01-03T15:27:07.915Z,96619.95
2018-01-03T15:29:37.445Z,96615.50
2018-01-03T15:32:05.716Z,96629.14
2018-01-03T15:34:33.977Z,96632.39
2018-01-03T15:37:02.266Z,96630.05
2018-01-03T15:39:30.516Z,96631.77
2018-01-03T15:41:58.799Z,96639.98
2018-01-03T15:44:27.052Z,96639.98
2018-01-03T15:46:56.089Z,96639.74
2018-01-03T15:49:24.345Z,96643.80
2018-01-03T15:51:53.384Z,96636.62
2018-01-03T15:54:21.627Z,96661.50
2018-01-03T15:56:49.919Z,96675.15
2018-01-03T15:59:18.175Z,96693.50
2018-01-03T16:01:47.793Z,96704.48
2018-01-03T16:04:16.110Z,96705.09
2018-01-03T16:06:44.392Z,96722.48
2018-01-03T16:09:12.644Z,96736.84
2018-01-03T16:11:40.903Z,96733.11
2018-01-03T16:14:09.213Z,96760.71
2018-01-03T16:16:37.467Z,96742.67
2018-01-03T16:19:06.550Z,96755.05
2018-01-03T16:21:34.850Z,96753.31
2018-01-03T16:24:03.138Z,96738.08
2018-01-03T16:26:31.383Z,96742.62
2018-01-03T16:28:59.645Z,96734.97
2018-01-03T16:31:28.661Z,96748.97
2018-01-03T16:33:57.879Z,96738.77
2018-01-03T16:36:26.169Z,96737.55
2018-01-03T16:38:54.453Z,96730.63
2018-01-03T16:41:22.715Z,96731.59
2018-01-03T16:43:51.045Z,96732.16
2018-01-03T16:46:19.328Z,96723.47
2018-01-03T16:48:47.638Z,96724.47
2018-01-03T16:51:15.884Z,96716.31
2018-01-03T16:53:45.843Z,96723.80
2018-01-03T16:56:14.123Z,96731.87
2018-01-03T16:58:42.396Z,96743.62
2018-01-03T17:01:11.486Z,96729.17
2018-01-03T17:03:39.761Z,96735.51
2018-01-03T17:06:08.021Z,96722.20
2018-01-03T17:08:36.284Z,96719.22
2018-01-03T17:11:04.575Z,96720.30
2018-01-03T17:13:32.907Z,96718.58
2018-01-03T17:16:01.160Z,96707.41
2018-01-03T17:18:29.422Z,96717.03
2018-01-03T17:20:59.255Z,96719.38
2018-01-03T17:23:28.354Z,96727.03
2018-01-03T17:25:57.434Z,96724.91
2018-01-03T17:28:25.705Z,96738.91
2018-01-03T17:30:54.013Z,96745.45
2018-01-03T17:33:23.105Z,96731.00
2018-01-03T17:35:51.414Z,96721.45
2018-01-03T17:38:19.716Z,96721.32
2018-01-03T17:40:48.020Z,96720.92
2018-01-03T17:43:16.337Z,96711.67
2018-01-03T17:45:44.585Z,96719.72
2018-01-03T17:48:12.862Z,96726.34
2018-01-03T17:50:41.107Z,96734.75
2018-01-03T17:53:09.418Z,96717.55
2018-01-03T17:55:37.704Z,96742.19
2018-01-03T17:58:05.943Z,96757.44
2018-01-03T18:00:35.585Z,96760.66
2018-01-03T18:03:03.887Z,96764.23
2018-01-03T18:05:32.156Z,96763.31
2018-01-03T18:08:00.476Z,96768.50
2018-01-03T18:10:28.751Z,96770.45
2018-01-03T18:12:57.059Z,96772.06
2018-01-03T18:15:25.332Z,96739.24
2018-01-03T18:17:53.645Z,96767.45
2018-01-03T18:20:22.015Z,96758.98
2018-01-03T18:22:50.331Z,96754.44
2018-01-03T18:25:18.630Z,96765.61
2018-01-03T18:27:47.635Z,96762.16
2018-01-03T18:30:15.998Z,96760.37
2018-01-03T18:32:44.306Z,96765.11
2018-01-03T18:35:12.633Z,96739.93
2018-01-03T18:37:40.944Z,96764.30
2018-01-03T18:40:10.056Z,96755.19
2018-01-03T18:42:39.168Z,96755.53
2018-01-03T18:45:07.498Z,96751.86
2018-01-03T18:47:35.798Z,96777.95
2018-01-03T18:50:04.113Z,96773.34
2018-01-03T18:52:32.482Z,96770.80
2018-01-03T18:55:00.785Z,96758.58
2018-01-03T18:57:29.104Z,96760.89
2018-01-03T18:59:58.205Z,96772.93
2018-01-03T19:02:27.263Z,96790.59
2018-01-03T19:04:55.590Z,96771.25
2018-01-03T19:07:23.885Z,96757.07
2018-01-03T19:09:52.983Z,96757.55
2018-01-03T19:12:21.276Z,96768.80
2018-01-03T19:14:49.605Z,96745.78
2018-01-03T19:17:17.911Z,96737.63
2018-01-03T19:19:46.230Z,96742.62
2018-01-03T19:22:14.555Z,96754.81
2018-01-03T19:24:43.639Z,96755.74
2018-01-03T19:27:11.945Z,96751.91
2018-01-03T19:29:41.389Z,96758.36
2018-01-03T19:32:09.677Z,96750.42
2018-01-03T19:34:38.774Z,96751.84
2018-01-03T19:37:07.839Z,96765.80
2018-01-03T19:39:36.166Z,96768.73
2018-01-03T19:42:05.221Z,96757.48
2018-01-03T19:44:33.550Z,96771.44
2018-01-03T19:47:02.626Z,96769.59
2018-01-03T19:49:30.927Z,96747.75
2018-01-03T19:51:59.250Z,96763.70
2018-01-03T19:54:28.327Z,96761.34
2018-01-03T19:56:57.420Z,96760.09
2018-01-03T19:59:25.714Z,96763.61
2018-01-03T20:01:54.056Z,96773.96
2018-01-03T20:04:22.370Z,96771.02
2018-01-03T20:06:50.706Z,96758.52
2018-01-03T20:09:19.015Z,96759.63
2018-01-03T20:11:48.099Z,96777.23
2018-01-03T20:14:16.402Z,96763.19
2018-01-03T20:16:44.734Z,96774.07
2018-01-03T20:19:13.031Z,96767.22
2018-01-03T20:21:41.363Z,96769.59
2018-01-03T20:24:09.668Z,96778.86
2018-01-03T20:26:39.516Z,96778.64
2018-01-03T20:29:08.624Z,96764.57
2018-01-03T20:31:36.953Z,96761.13
2018-01-03T20:34:05.243Z,96772.58
2018-01-03T20:36:33.583Z,96776.48
2018-01-03T20:39:01.893Z,96778.04
2018-01-03T20:41:30.979Z,96778.62
2018-01-03T20:44:00.054Z,96780.06
2018-01-03T20:46:28.373Z,96775.27
2018-01-03T20:48:57.444Z,96781.52
2018-01-03T20:51:25.770Z,96778.11
2018-01-03T20:53:54.838Z,96786.13
2018-01-03T20:56:23.149Z,96780.30
2018-01-03T20:58:51.442Z,96785.55
2018-01-03T21:01:19.757Z,96777.41
2018-01-03T21:03:48.815Z,96789.11
2018-01-03T21:06:17.151Z,96789.63
2018-01-03T21:08:46.247Z,96799.02
2018-01-03T21:11:15.329Z,96808.39
2018-01-03T21:13:43.639Z,96820.34
2018-01-03T21:16:11.982Z,96814.72
2018-01-03T21:18:40.422Z,96809.97
2018-01-03T21:21:08.739Z,96810.59
2018-01-03T21:23:37.799Z,96793.77
2018-01-03T21:26:06.131Z,96792.16
2018-01-03T21:28:35.186Z,96777.36
2018-01-03T21:31:03.516Z,96777.94
2018-01-03T21:33:31.803Z,96792.75
2018-01-03T21:36:00.886Z,96790.66
2018-01-03T21:38:29.198Z,96781.84
2018-01-03T21:40:57.515Z,96784.16
2018-01-03T21:43:25.835Z,96784.72
2018-01-03T21:45:54.122Z,96777.41
2018-01-03T21:48:22.446Z,96784.61
2018-01-03T21:50:50.760Z,96784.84
2018-01-03T21:53:20.429Z,96778.45
2018-01-03T21:55:48.741Z,96777.47
2018-01-03T21:58:17.828Z,96769.34
2018-01-03T22:00:46.134Z,96744.14
2018-01-03T22:03:14.459Z,96780.88
2018-01-03T22:05:43.524Z,96766.77
2018-01-03T22:08:11.845Z,96796.30
2018-01-03T22:10:40.239Z,96806.13
2018-01-03T22:13:08.552Z,96783.60
2018-01-03T22:15:37.613Z,96768.22
2018-01-03T22:18:05.919Z,96786.37
2018-01-03T22:20:34.220Z,96785.87
2018-01-03T22:23:02.542Z,96764.68
2018-01-03T22:25:30.831Z,96778.72
2018-01-03T22:27:59.899Z,96787.77
2018-01-03T22:30:28.206Z,96802.91
2018-01-03T22:32:57.316Z,96788.76
2018-01-03T22:35:26.423Z,96804.55
2018-01-03T22:37:55.575Z,96809.86
2018-01-03T22:40:23.961Z,96804.02
2018-01-03T22:42:52.303Z,96804.17
2018-01-03T22:45:20.643Z,96795.04
2018-01-03T22:47:48.987Z,96793.79
2018-01-03T22:50:18.127Z,96788.69
2018-01-03T22:52:46.463Z,96789.94
2018-01-03T22:55:14.798Z,96792.31
2018-01-03T22:57:43.874Z,96790.34
2018-01-03T23:00:13.583Z,96781.77
2018-01-03T23:02:41.932Z,96774.17
2018-01-03T23:05:10.275Z,96771.97
2018-01-03T23:07:38.588Z,96761.78
2018-01-03T23:10:07.740Z,96755.84
2018-01-03T23:12:36.172Z,96762.25
2018-01-03T23:15:04.550Z,96741.93
2018-01-03T23:17:32.882Z,96752.34
2018-01-03T23:20:02.004Z,96767.30
2018-01-03T23:22:30.293Z,96764.88
2018-01-03T23:24:58.685Z,96761.35
2018-01-03T23:27:27.062Z,96758.84
2018-01-03T23:29:55.396Z,96761.20
2018-01-03T23:32:23.700Z,96748.86
2018-01-03T23:34:52.071Z,96753.22
2018-01-03T23:37:20.418Z,96754.13
2018-01-03T23:39:49.625Z,96756.30
2018-01-03T23:42:17.887Z,96753.75
2018-01-03T23:44:46.199Z,96755.09
2018-01-03T23:47:14.487Z,96736.64
2018-01-03T23:49:42.761Z,96739.52
2018-01-03T23:52:11.967Z,96747.88
2018-01-03T23:54:40.238Z,96753.21
2018-01-03T23:57:08.539Z,96753.07
2018-01-03T23:59:36.804Z,96759.58
